Bradford Regional Airport
KBFD : now visible

Airfield :











YOU CAN JOIN US ON...

 
LOGIN :

Register | Disclaimer

   EN    FR    IT 

 









Legend :    VFR   Marginal VFR   IFR   Intensive IFR   Very Intensive IFR
Visi :
Ceiling :
>= 8 km
>= 3000ft
5 to 8 km
1000 to 3000 ft
1500m to 5 km
500 to 1000 ft
800 to 1500m
200 to 500 ft
< 800m
< 200 ft
Symbols :   Thunderstorms  Fog  Heavy snow  Heavy precipitations  Wind > 20 kt






- Airport Elevation : 2143 ft
- IATA code : BFD


KBFD - Bradford Regional

CURRENT METAR :
  • 080753Z AUTO 15006KT 10SM CLR M08/M12 A3030 RMK AO2 SLP290 T10831117

EXPIRED METARs :
  • 080653Z AUTO 15005KT 10SM CLR M10/M13 A3031 RMK AO2 SLP296 T11001128
  • 080553Z AUTO 13003KT 6SM BR CLR M12/M14 A3031 RMK AO2 SLP296 I1000 I6001 T11171139 11072 21117 58008

TAF KBFD
Valid from the 08 at 06:00 until the 09 at 06:00 UTC


080615Z 0806/0906 00000KT P6SM FEW100 SCT250
FM081400 17011G17KT P6SM SCT035 OVC120
FM081800 18011G18KT P6SM OVC035
FM082100 18011G19KT P6SM OVC025 WS020/20040KT



MET'MAP, your aeronautical weather chart ! - Copyright ORBIFLY December 2007 - Disclaimer

ORBIFLY MET'MAP TEAM :

Programming & Development : Alexandra Zaïnal
Concept & original design : Baudouin d'Aumeries
Assistance for programming : Marc-Olivier Méhu
Technical & hardware support : Manuel Goepfert

Contact : metmap@orbifly.com




SOURCES & CREDITS :

   NOAA       Earth
Advisory